Bazine, Kansas
Current Conditions -  °F | °C
As of 6:15 PM on Saturday 25 Oct 2014 (Local Time) from KHYS Reporting Station
Clear Clear  
Wind Chill: 81°   Ceiling: Unl
Heat Index: 81°   Visibility: 10mi
Dew Point: 52°   Wind: 10mph
Humidity: 37%   Direction: 150°SSE
Pressure: 29.96"   Gusts: NA
Location:  38.44°N, 99.69°W
Report Text: KHYS 252315Z AUTO 15009KT 10SM CLR 27/11 A2996 RMK AO1
Loading
Personal Weather Stations






























Interactive Weather Map
Tropical Storm Tracking
New forecast layout! Learn more

10-Day Weather Forecast

Advertisements
Track Severe Weather on mobile